sensor_id;sensor_type;location;lat;lon;timestamp;pressure;altitude;pressure_sealevel;temperature;humidity
21240;BME280;10778;48.962;9.018;2023-07-20T00:01:48;98910.19;;;19.29;59.68
21240;BME280;10778;48.962;9.018;2023-07-20T00:04:14;98910.78;;;19.25;59.04
21240;BME280;10778;48.962;9.018;2023-07-20T00:06:40;98909.09;;;19.17;59.20
21240;BME280;10778;48.962;9.018;2023-07-20T00:09:09;98913.44;;;19.25;59.33
21240;BME280;10778;48.962;9.018;2023-07-20T00:11:36;98914.25;;;19.18;59.64
21240;BME280;10778;48.962;9.018;2023-07-20T00:14:06;98913.97;;;19.07;59.39
21240;BME280;10778;48.962;9.018;2023-07-20T00:16:32;98922.63;;;19.15;59.21
21240;BME280;10778;48.962;9.018;2023-07-20T00:18:58;98922.94;;;18.99;59.72
21240;BME280;10778;48.962;9.018;2023-07-20T00:21:25;98920.59;;;18.89;60.24
21240;BME280;10778;48.962;9.018;2023-07-20T00:23:51;98923.91;;;18.91;60.73
21240;BME280;10778;48.962;9.018;2023-07-20T00:26:17;98918.56;;;18.84;60.40
21240;BME280;10778;48.962;9.018;2023-07-20T00:28:44;98919.19;;;18.86;60.66
21240;BME280;10778;48.962;9.018;2023-07-20T00:31:10;98924.88;;;18.76;60.80
21240;BME280;10778;48.962;9.018;2023-07-20T00:33:36;98926.03;;;18.67;61.52
21240;BME280;10778;48.962;9.018;2023-07-20T00:36:03;98912.88;;;18.66;61.59
21240;BME280;10778;48.962;9.018;2023-07-20T00:38:30;98922.88;;;18.57;62.20
21240;BME280;10778;48.962;9.018;2023-07-20T00:40:56;98910.97;;;18.53;62.25
21240;BME280;10778;48.962;9.018;2023-07-20T00:43:22;98912.59;;;18.54;62.56
21240;BME280;10778;48.962;9.018;2023-07-20T00:45:49;98919.78;;;18.53;62.75
21240;BME280;10778;48.962;9.018;2023-07-20T00:48:17;98921.50;;;18.32;63.33
21240;BME280;10778;48.962;9.018;2023-07-20T00:50:44;98922.06;;;18.28;63.61
21240;BME280;10778;48.962;9.018;2023-07-20T00:53:11;98924.09;;;18.26;64.05
21240;BME280;10778;48.962;9.018;2023-07-20T00:55:37;98928.97;;;18.22;64.68
21240;BME280;10778;48.962;9.018;2023-07-20T00:58:03;98936.72;;;18.17;65.17
21240;BME280;10778;48.962;9.018;2023-07-20T01:00:30;98936.59;;;18.03;65.49
21240;BME280;10778;48.962;9.018;2023-07-20T01:02:57;98941.44;;;18.00;65.24
21240;BME280;10778;48.962;9.018;2023-07-20T01:05:28;98933.84;;;17.97;65.79
21240;BME280;10778;48.962;9.018;2023-07-20T01:08:00;98939.56;;;17.94;65.72
21240;BME280;10778;48.962;9.018;2023-07-20T01:10:39;98946.63;;;17.86;66.74
21240;BME280;10778;48.962;9.018;2023-07-20T01:13:07;98945.63;;;17.87;67.21
21240;BME280;10778;48.962;9.018;2023-07-20T01:15:35;98944.03;;;17.71;67.56
21240;BME280;10778;48.962;9.018;2023-07-20T01:18:01;98933.00;;;17.53;68.36
21240;BME280;10778;48.962;9.018;2023-07-20T01:20:31;98939.94;;;17.54;69.14
21240;BME280;10778;48.962;9.018;2023-07-20T01:26:27;98942.56;;;17.32;69.17
21240;BME280;10778;48.962;9.018;2023-07-20T01:29:22;98940.09;;;17.30;69.71
21240;BME280;10778;48.962;9.018;2023-07-20T01:31:51;98938.66;;;17.13;70.13
21240;BME280;10778;48.962;9.018;2023-07-20T01:34:18;98940.94;;;17.16;71.62
21240;BME280;10778;48.962;9.018;2023-07-20T01:36:45;98935.81;;;17.14;70.79
21240;BME280;10778;48.962;9.018;2023-07-20T01:39:12;98934.59;;;17.17;71.37
21240;BME280;10778;48.962;9.018;2023-07-20T01:41:38;98936.16;;;17.11;71.10
21240;BME280;10778;48.962;9.018;2023-07-20T01:44:05;98931.59;;;17.05;71.73
21240;BME280;10778;48.962;9.018;2023-07-20T01:46:31;98932.34;;;16.99;72.16
21240;BME280;10778;48.962;9.018;2023-07-20T01:48:58;98936.78;;;16.98;72.25
21240;BME280;10778;48.962;9.018;2023-07-20T01:51:24;98941.56;;;16.88;72.47
21240;BME280;10778;48.962;9.018;2023-07-20T01:53:50;98936.78;;;16.83;72.71
21240;BME280;10778;48.962;9.018;2023-07-20T01:56:16;98937.22;;;16.72;72.52
21240;BME280;10778;48.962;9.018;2023-07-20T01:58:42;98940.44;;;16.67;73.01
21240;BME280;10778;48.962;9.018;2023-07-20T02:01:08;98941.28;;;16.68;73.59
21240;BME280;10778;48.962;9.018;2023-07-20T02:03:34;98940.63;;;16.66;74.22
21240;BME280;10778;48.962;9.018;2023-07-20T02:06:00;98937.88;;;16.59;74.23
21240;BME280;10778;48.962;9.018;2023-07-20T02:08:26;98948.69;;;16.34;74.97
21240;BME280;10778;48.962;9.018;2023-07-20T02:10:55;98948.06;;;16.32;76.10
21240;BME280;10778;48.962;9.018;2023-07-20T02:13:21;98946.00;;;16.42;75.77
21240;BME280;10778;48.962;9.018;2023-07-20T02:15:48;98943.69;;;16.39;74.88
21240;BME280;10778;48.962;9.018;2023-07-20T02:18:15;98944.06;;;16.36;74.90
21240;BME280;10778;48.962;9.018;2023-07-20T02:20:42;98943.38;;;16.34;75.33
21240;BME280;10778;48.962;9.018;2023-07-20T02:23:08;98940.81;;;16.26;74.22
21240;BME280;10778;48.962;9.018;2023-07-20T02:25:34;98942.47;;;16.27;74.92
21240;BME280;10778;48.962;9.018;2023-07-20T02:28:00;98943.88;;;16.14;75.35
21240;BME280;10778;48.962;9.018;2023-07-20T02:30:26;98949.69;;;16.18;76.00
21240;BME280;10778;48.962;9.018;2023-07-20T02:32:53;98945.91;;;16.12;75.98
21240;BME280;10778;48.962;9.018;2023-07-20T02:35:19;98947.25;;;16.08;76.89
21240;BME280;10778;48.962;9.018;2023-07-20T02:37:45;98946.44;;;16.07;76.33
21240;BME280;10778;48.962;9.018;2023-07-20T02:40:11;98953.28;;;16.02;77.11
21240;BME280;10778;48.962;9.018;2023-07-20T02:42:37;98948.16;;;16.00;77.73
21240;BME280;10778;48.962;9.018;2023-07-20T02:45:04;98954.19;;;15.94;78.55
21240;BME280;10778;48.962;9.018;2023-07-20T02:47:31;98951.84;;;15.91;80.51
21240;BME280;10778;48.962;9.018;2023-07-20T02:49:57;98956.06;;;15.77;80.89
21240;BME280;10778;48.962;9.018;2023-07-20T02:52:23;98963.59;;;15.65;82.46
21240;BME280;10778;48.962;9.018;2023-07-20T02:54:50;98956.94;;;15.69;83.34
21240;BME280;10778;48.962;9.018;2023-07-20T02:57:16;98958.13;;;15.67;82.84
21240;BME280;10778;48.962;9.018;2023-07-20T02:59:42;98959.69;;;15.53;82.53
21240;BME280;10778;48.962;9.018;2023-07-20T03:02:08;98957.75;;;15.38;82.27
21240;BME280;10778;48.962;9.018;2023-07-20T03:04:37;98959.81;;;15.28;83.48
21240;BME280;10778;48.962;9.018;2023-07-20T03:07:07;98970.06;;;15.31;84.37
21240;BME280;10778;48.962;9.018;2023-07-20T03:09:33;98965.97;;;15.20;85.69
21240;BME280;10778;48.962;9.018;2023-07-20T03:11:59;98968.81;;;15.10;85.33
21240;BME280;10778;48.962;9.018;2023-07-20T03:14:26;98966.38;;;15.00;86.84
21240;BME280;10778;48.962;9.018;2023-07-20T03:16:52;98976.13;;;15.00;85.58
21240;BME280;10778;48.962;9.018;2023-07-20T03:19:18;98972.00;;;14.89;85.84
21240;BME280;10778;48.962;9.018;2023-07-20T03:21:44;98983.44;;;14.81;85.77
21240;BME280;10778;48.962;9.018;2023-07-20T03:24:10;98984.59;;;14.78;86.50
21240;BME280;10778;48.962;9.018;2023-07-20T03:26:36;98979.28;;;14.70;86.69
21240;BME280;10778;48.962;9.018;2023-07-20T03:29:04;98981.78;;;14.72;86.99
21240;BME280;10778;48.962;9.018;2023-07-20T03:31:32;98984.94;;;14.67;87.49
21240;BME280;10778;48.962;9.018;2023-07-20T03:33:58;98978.78;;;14.67;87.40
21240;BME280;10778;48.962;9.018;2023-07-20T03:36:24;98983.28;;;14.66;87.90
21240;BME280;10778;48.962;9.018;2023-07-20T03:38:50;98979.63;;;14.59;88.32
21240;BME280;10778;48.962;9.018;2023-07-20T03:41:16;98988.41;;;14.51;89.55
21240;BME280;10778;48.962;9.018;2023-07-20T03:43:42;98984.44;;;14.63;89.95
21240;BME280;10778;48.962;9.018;2023-07-20T03:46:09;98985.75;;;14.68;88.61
21240;BME280;10778;48.962;9.018;2023-07-20T03:48:35;98993.53;;;14.44;89.80
21240;BME280;10778;48.962;9.018;2023-07-20T03:51:01;98988.25;;;14.19;91.14
21240;BME280;10778;48.962;9.018;2023-07-20T03:53:28;98992.88;;;14.34;91.27
21240;BME280;10778;48.962;9.018;2023-07-20T03:55:54;98988.91;;;14.46;90.62
21240;BME280;10778;48.962;9.018;2023-07-20T03:58:20;98999.00;;;14.43;89.86
21240;BME280;10778;48.962;9.018;2023-07-20T04:00:50;98996.03;;;14.29;90.80
21240;BME280;10778;48.962;9.018;2023-07-20T04:03:17;98993.03;;;14.49;97.36
21240;BME280;10778;48.962;9.018;2023-07-20T04:05:44;98985.22;;;15.05;91.27
21240;BME280;10778;48.962;9.018;2023-07-20T04:08:10;98983.66;;;15.19;86.91
21240;BME280;10778;48.962;9.018;2023-07-20T04:10:43;98999.13;;;15.07;87.47
21240;BME280;10778;48.962;9.018;2023-07-20T04:13:09;98995.97;;;15.12;87.21
21240;BME280;10778;48.962;9.018;2023-07-20T04:15:35;98998.16;;;15.40;86.62
21240;BME280;10778;48.962;9.018;2023-07-20T04:18:01;98995.44;;;15.57;83.96
21240;BME280;10778;48.962;9.018;2023-07-20T04:20:27;98998.84;;;15.42;81.80
21240;BME280;10778;48.962;9.018;2023-07-20T04:22:53;99003.22;;;15.27;86.02
21240;BME280;10778;48.962;9.018;2023-07-20T04:25:20;99001.91;;;15.14;84.54
21240;BME280;10778;48.962;9.018;2023-07-20T04:27:46;99009.56;;;15.09;85.42
21240;BME280;10778;48.962;9.018;2023-07-20T04:30:13;99002.81;;;15.38;85.41
21240;BME280;10778;48.962;9.018;2023-07-20T04:32:40;99003.00;;;15.36;83.89
21240;BME280;10778;48.962;9.018;2023-07-20T04:35:10;99004.81;;;15.76;83.72
21240;BME280;10778;48.962;9.018;2023-07-20T04:37:39;98999.72;;;15.98;82.17
21240;BME280;10778;48.962;9.018;2023-07-20T04:40:15;99001.81;;;16.11;81.42
21240;BME280;10778;48.962;9.018;2023-07-20T04:42:41;99002.09;;;15.92;81.24
21240;BME280;10778;48.962;9.018;2023-07-20T04:45:08;99003.59;;;15.95;82.25
21240;BME280;10778;48.962;9.018;2023-07-20T04:47:34;99002.50;;;15.73;83.63
21240;BME280;10778;48.962;9.018;2023-07-20T04:50:01;99003.00;;;15.76;83.72
21240;BME280;10778;48.962;9.018;2023-07-20T04:52:28;99002.94;;;15.93;83.26
21240;BME280;10778;48.962;9.018;2023-07-20T04:54:56;99000.59;;;16.21;81.25
21240;BME280;10778;48.962;9.018;2023-07-20T04:57:23;98995.84;;;16.09;82.16
21240;BME280;10778;48.962;9.018;2023-07-20T04:59:49;99001.09;;;15.93;82.12
21240;BME280;10778;48.962;9.018;2023-07-20T05:02:15;99007.94;;;16.11;82.26
21240;BME280;10778;48.962;9.018;2023-07-20T05:04:41;99005.09;;;15.89;83.15
21240;BME280;10778;48.962;9.018;2023-07-20T05:07:08;99005.53;;;16.01;83.78
21240;BME280;10778;48.962;9.018;2023-07-20T05:09:34;98999.75;;;16.59;80.65
21240;BME280;10778;48.962;9.018;2023-07-20T05:12:00;99003.06;;;17.15;78.50
21240;BME280;10778;48.962;9.018;2023-07-20T05:14:27;99000.50;;;17.22;77.20
21240;BME280;10778;48.962;9.018;2023-07-20T05:16:54;98995.84;;;17.09;78.60
21240;BME280;10778;48.962;9.018;2023-07-20T05:19:20;98996.09;;;17.44;77.84
21240;BME280;10778;48.962;9.018;2023-07-20T05:21:46;99000.25;;;17.46;77.74
21240;BME280;10778;48.962;9.018;2023-07-20T05:24:12;98996.94;;;17.29;77.27
21240;BME280;10778;48.962;9.018;2023-07-20T05:26:38;99005.06;;;17.73;77.56
21240;BME280;10778;48.962;9.018;2023-07-20T05:29:04;99001.69;;;18.23;75.67
21240;BME280;10778;48.962;9.018;2023-07-20T05:31:30;99000.63;;;18.67;73.63
21240;BME280;10778;48.962;9.018;2023-07-20T05:33:57;98990.25;;;19.01;72.09
21240;BME280;10778;48.962;9.018;2023-07-20T05:36:24;98989.63;;;19.05;70.64
21240;BME280;10778;48.962;9.018;2023-07-20T05:38:50;98989.69;;;18.84;71.80
21240;BME280;10778;48.962;9.018;2023-07-20T05:41:16;99001.22;;;18.91;69.99
21240;BME280;10778;48.962;9.018;2023-07-20T05:43:42;98988.69;;;19.62;69.07
21240;BME280;10778;48.962;9.018;2023-07-20T05:46:08;98985.00;;;19.70;65.83
21240;BME280;10778;48.962;9.018;2023-07-20T05:48:34;98972.41;;;20.26;66.15
21240;BME280;10778;48.962;9.018;2023-07-20T05:51:01;98971.78;;;19.97;66.62
21240;BME280;10778;48.962;9.018;2023-07-20T05:53:27;98964.81;;;20.50;65.44
21240;BME280;10778;48.962;9.018;2023-07-20T05:55:53;98975.09;;;20.32;65.39
21240;BME280;10778;48.962;9.018;2023-07-20T05:58:19;98979.44;;;20.81;64.53
21240;BME280;10778;48.962;9.018;2023-07-20T06:00:49;98980.22;;;20.68;63.70
21240;BME280;10778;48.962;9.018;2023-07-20T06:03:15;98988.19;;;21.15;62.78
21240;BME280;10778;48.962;9.018;2023-07-20T06:05:45;98974.50;;;21.89;60.88
21240;BME280;10778;48.962;9.018;2023-07-20T06:11:31;98982.66;;;20.96;61.53
21240;BME280;10778;48.962;9.018;2023-07-20T06:13:57;98986.59;;;20.26;63.78
21240;BME280;10778;48.962;9.018;2023-07-20T06:16:23;98988.44;;;20.06;64.16
21240;BME280;10778;48.962;9.018;2023-07-20T06:18:49;98983.94;;;20.87;62.67
21240;BME280;10778;48.962;9.018;2023-07-20T06:21:15;98984.97;;;20.86;60.86
21240;BME280;10778;48.962;9.018;2023-07-20T06:23:41;98986.53;;;21.14;60.98
21240;BME280;10778;48.962;9.018;2023-07-20T06:26:07;98982.91;;;20.81;61.63
21240;BME280;10778;48.962;9.018;2023-07-20T06:28:33;98981.66;;;20.57;61.52
21240;BME280;10778;48.962;9.018;2023-07-20T06:31:00;98983.94;;;20.87;60.68
21240;BME280;10778;48.962;9.018;2023-07-20T06:33:26;98974.88;;;21.54;60.45
21240;BME280;10778;48.962;9.018;2023-07-20T06:35:52;98986.06;;;21.30;58.75
21240;BME280;10778;48.962;9.018;2023-07-20T06:38:19;98968.47;;;21.55;59.68
21240;BME280;10778;48.962;9.018;2023-07-20T06:40:48;98972.16;;;22.06;58.67
21240;BME280;10778;48.962;9.018;2023-07-20T06:46:56;98972.88;;;21.42;58.36
21240;BME280;10778;48.962;9.018;2023-07-20T06:49:26;98975.75;;;21.93;58.28
21240;BME280;10778;48.962;9.018;2023-07-20T06:51:53;98974.78;;;22.13;57.60
21240;BME280;10778;48.962;9.018;2023-07-20T06:54:19;98973.59;;;22.34;56.34
21240;BME280;10778;48.962;9.018;2023-07-20T06:56:45;98970.66;;;22.10;57.26
21240;BME280;10778;48.962;9.018;2023-07-20T06:59:11;98974.22;;;22.62;56.52
21240;BME280;10778;48.962;9.018;2023-07-20T07:01:37;98965.22;;;22.24;57.07
21240;BME280;10778;48.962;9.018;2023-07-20T07:04:03;98970.66;;;22.68;56.73
21240;BME280;10778;48.962;9.018;2023-07-20T07:06:31;98978.50;;;21.80;57.57
21240;BME280;10778;48.962;9.018;2023-07-20T07:08:57;98970.84;;;22.41;56.70
21240;BME280;10778;48.962;9.018;2023-07-20T07:11:23;98964.88;;;23.08;55.82
21240;BME280;10778;48.962;9.018;2023-07-20T07:13:49;98968.31;;;22.97;56.02
21240;BME280;10778;48.962;9.018;2023-07-20T07:16:17;98967.59;;;22.83;55.83
21240;BME280;10778;48.962;9.018;2023-07-20T07:18:45;98961.59;;;23.25;56.17
21240;BME280;10778;48.962;9.018;2023-07-20T07:21:11;98957.56;;;23.83;54.52
21240;BME280;10778;48.962;9.018;2023-07-20T07:23:39;98964.66;;;23.78;53.68
21240;BME280;10778;48.962;9.018;2023-07-20T07:26:05;98949.84;;;24.29;52.33
21240;BME280;10778;48.962;9.018;2023-07-20T07:28:31;98947.72;;;24.20;51.82
21240;BME280;10778;48.962;9.018;2023-07-20T07:31:00;98943.19;;;24.20;52.14
21240;BME280;10778;48.962;9.018;2023-07-20T07:33:26;98944.13;;;24.14;52.63
21240;BME280;10778;48.962;9.018;2023-07-20T07:35:52;98940.25;;;24.22;52.41
21240;BME280;10778;48.962;9.018;2023-07-20T07:38:19;98942.13;;;24.09;52.05
21240;BME280;10778;48.962;9.018;2023-07-20T07:40:45;98953.63;;;23.98;51.77
21240;BME280;10778;48.962;9.018;2023-07-20T07:43:12;98939.59;;;24.62;50.70
21240;BME280;10778;48.962;9.018;2023-07-20T07:45:41;98940.88;;;24.24;50.75
21240;BME280;10778;48.962;9.018;2023-07-20T07:48:07;98950.78;;;23.50;53.40
21240;BME280;10778;48.962;9.018;2023-07-20T07:50:34;98947.78;;;24.01;52.53
21240;BME280;10778;48.962;9.018;2023-07-20T07:53:00;98951.47;;;24.07;53.46
21240;BME280;10778;48.962;9.018;2023-07-20T07:55:26;98947.41;;;24.40;52.98
21240;BME280;10778;48.962;9.018;2023-07-20T07:57:52;98953.69;;;23.79;53.14
21240;BME280;10778;48.962;9.018;2023-07-20T08:00:18;98943.03;;;23.42;53.52
21240;BME280;10778;48.962;9.018;2023-07-20T08:02:45;98951.97;;;22.98;55.37
21240;BME280;10778;48.962;9.018;2023-07-20T08:05:12;98959.47;;;22.45;55.97
21240;BME280;10778;48.962;9.018;2023-07-20T08:07:38;98958.91;;;21.79;57.67
21240;BME280;10778;48.962;9.018;2023-07-20T08:10:05;98963.25;;;21.73;58.24
21240;BME280;10778;48.962;9.018;2023-07-20T08:12:31;98968.13;;;22.48;56.36
21240;BME280;10778;48.962;9.018;2023-07-20T08:14:58;98958.56;;;23.21;54.07
21240;BME280;10778;48.962;9.018;2023-07-20T08:17:24;98955.69;;;23.84;52.97
21240;BME280;10778;48.962;9.018;2023-07-20T08:19:51;98949.78;;;23.94;53.54
21240;BME280;10778;48.962;9.018;2023-07-20T08:22:17;98944.41;;;24.48;52.11
21240;BME280;10778;48.962;9.018;2023-07-20T08:24:43;98949.16;;;23.80;52.82
21240;BME280;10778;48.962;9.018;2023-07-20T08:27:09;98954.22;;;22.57;53.59
21240;BME280;10778;48.962;9.018;2023-07-20T08:29:38;98951.31;;;23.40;52.20
21240;BME280;10778;48.962;9.018;2023-07-20T08:32:05;98951.16;;;23.54;51.23
21240;BME280;10778;48.962;9.018;2023-07-20T08:34:31;98943.09;;;24.39;50.75
21240;BME280;10778;48.962;9.018;2023-07-20T08:36:58;98936.88;;;24.38;49.99
21240;BME280;10778;48.962;9.018;2023-07-20T08:39:24;98944.25;;;24.55;48.81
21240;BME280;10778;48.962;9.018;2023-07-20T08:41:50;98937.38;;;24.59;48.25
21240;BME280;10778;48.962;9.018;2023-07-20T08:44:20;98948.47;;;24.75;49.71
21240;BME280;10778;48.962;9.018;2023-07-20T08:46:47;98940.84;;;24.71;48.77
21240;BME280;10778;48.962;9.018;2023-07-20T08:49:16;98941.31;;;23.78;50.86
21240;BME280;10778;48.962;9.018;2023-07-20T08:51:43;98951.72;;;23.56;52.08
21240;BME280;10778;48.962;9.018;2023-07-20T08:54:10;98938.75;;;24.62;50.32
21240;BME280;10778;48.962;9.018;2023-07-20T08:56:39;98931.75;;;24.61;48.15
21240;BME280;10778;48.962;9.018;2023-07-20T08:59:08;98930.13;;;24.36;48.10
21240;BME280;10778;48.962;9.018;2023-07-20T09:01:36;98939.25;;;24.35;48.34
21240;BME280;10778;48.962;9.018;2023-07-20T09:04:02;98934.22;;;24.86;47.08
21240;BME280;10778;48.962;9.018;2023-07-20T09:06:29;98930.56;;;24.68;47.26
21240;BME280;10778;48.962;9.018;2023-07-20T09:08:55;98933.09;;;25.23;47.32
21240;BME280;10778;48.962;9.018;2023-07-20T09:11:21;98935.84;;;24.75;47.56
21240;BME280;10778;48.962;9.018;2023-07-20T09:13:47;98932.09;;;24.64;48.02
21240;BME280;10778;48.962;9.018;2023-07-20T09:16:13;98928.00;;;24.38;47.68
21240;BME280;10778;48.962;9.018;2023-07-20T09:18:41;98943.31;;;23.15;46.68
21240;BME280;10778;48.962;9.018;2023-07-20T09:21:07;98938.53;;;23.85;46.51
21240;BME280;10778;48.962;9.018;2023-07-20T09:23:34;98930.94;;;24.36;47.52
21240;BME280;10778;48.962;9.018;2023-07-20T09:26:09;98923.09;;;24.47;46.67
21240;BME280;10778;48.962;9.018;2023-07-20T09:28:42;98925.22;;;24.33;47.82
21240;BME280;10778;48.962;9.018;2023-07-20T09:31:17;98935.88;;;23.54;47.82
21240;BME280;10778;48.962;9.018;2023-07-20T09:33:43;98933.97;;;24.16;47.35
21240;BME280;10778;48.962;9.018;2023-07-20T09:36:10;98928.34;;;24.18;48.78
21240;BME280;10778;48.962;9.018;2023-07-20T09:38:42;98926.72;;;24.52;48.19
21240;BME280;10778;48.962;9.018;2023-07-20T09:41:13;98924.06;;;24.76;46.74
21240;BME280;10778;48.962;9.018;2023-07-20T09:43:41;98934.22;;;24.62;45.73
21240;BME280;10778;48.962;9.018;2023-07-20T09:46:08;98935.38;;;24.90;46.23
21240;BME280;10778;48.962;9.018;2023-07-20T09:48:34;98928.66;;;25.17;45.51
21240;BME280;10778;48.962;9.018;2023-07-20T09:51:01;98916.06;;;24.69;46.25
21240;BME280;10778;48.962;9.018;2023-07-20T09:53:28;98926.25;;;25.03;44.40
21240;BME280;10778;48.962;9.018;2023-07-20T09:55:54;98924.06;;;24.76;45.70
21240;BME280;10778;48.962;9.018;2023-07-20T09:58:21;98928.72;;;24.81;45.48
21240;BME280;10778;48.962;9.018;2023-07-20T10:00:50;98916.19;;;25.68;45.36
21240;BME280;10778;48.962;9.018;2023-07-20T10:03:21;98921.47;;;25.63;45.07
21240;BME280;10778;48.962;9.018;2023-07-20T10:05:52;98912.44;;;25.69;42.60
21240;BME280;10778;48.962;9.018;2023-07-20T10:08:24;98926.59;;;25.48;44.31
21240;BME280;10778;48.962;9.018;2023-07-20T10:10:50;98910.50;;;26.16;42.95
21240;BME280;10778;48.962;9.018;2023-07-20T10:13:18;98913.28;;;25.87;43.22
21240;BME280;10778;48.962;9.018;2023-07-20T10:15:54;98910.38;;;25.60;43.37
21240;BME280;10778;48.962;9.018;2023-07-20T10:18:31;98914.59;;;25.55;41.64
21240;BME280;10778;48.962;9.018;2023-07-20T10:21:00;98920.78;;;25.27;43.30
21240;BME280;10778;48.962;9.018;2023-07-20T10:23:30;98914.28;;;25.11;42.99
21240;BME280;10778;48.962;9.018;2023-07-20T10:25:58;98910.94;;;24.92;44.05
21240;BME280;10778;48.962;9.018;2023-07-20T10:28:26;98919.25;;;24.42;46.88
21240;BME280;10778;48.962;9.018;2023-07-20T10:30:52;98913.63;;;23.47;47.09
21240;BME280;10778;48.962;9.018;2023-07-20T10:33:19;98916.53;;;24.07;45.27
21240;BME280;10778;48.962;9.018;2023-07-20T10:36:03;98908.34;;;24.73;44.83
21240;BME280;10778;48.962;9.018;2023-07-20T10:43:44;98891.31;;;25.95;40.41
21240;BME280;10778;48.962;9.018;2023-07-20T10:46:13;98884.28;;;26.46;41.71
21240;BME280;10778;48.962;9.018;2023-07-20T10:48:59;98889.75;;;26.51;40.67
21240;BME280;10778;48.962;9.018;2023-07-20T10:51:26;98891.38;;;26.35;42.69
21240;BME280;10778;48.962;9.018;2023-07-20T10:53:52;98886.91;;;26.06;41.35
21240;BME280;10778;48.962;9.018;2023-07-20T10:56:21;98886.09;;;26.23;41.00
21240;BME280;10778;48.962;9.018;2023-07-20T10:58:47;98882.38;;;26.46;41.23
21240;BME280;10778;48.962;9.018;2023-07-20T11:01:17;98879.41;;;26.25;42.01
21240;BME280;10778;48.962;9.018;2023-07-20T11:03:48;98884.91;;;25.67;42.29
21240;BME280;10778;48.962;9.018;2023-07-20T11:08:56;98877.88;;;26.52;42.17
21240;BME280;10778;48.962;9.018;2023-07-20T11:11:26;98870.13;;;26.55;42.88
21240;BME280;10778;48.962;9.018;2023-07-20T11:13:56;98870.16;;;26.04;42.86
21240;BME280;10778;48.962;9.018;2023-07-20T11:16:44;98869.97;;;25.60;43.20
21240;BME280;10778;48.962;9.018;2023-07-20T11:21:46;98868.72;;;25.50;42.77
21240;BME280;10778;48.962;9.018;2023-07-20T11:24:12;98872.94;;;26.26;43.57
21240;BME280;10778;48.962;9.018;2023-07-20T11:26:40;98870.41;;;26.20;43.41
21240;BME280;10778;48.962;9.018;2023-07-20T11:29:07;98871.66;;;26.29;41.26
21240;BME280;10778;48.962;9.018;2023-07-20T11:31:38;98853.56;;;26.12;41.15
21240;BME280;10778;48.962;9.018;2023-07-20T11:34:04;98857.47;;;25.53;40.98
21240;BME280;10778;48.962;9.018;2023-07-20T11:36:30;98860.19;;;25.41;41.51
21240;BME280;10778;48.962;9.018;2023-07-20T11:38:58;98859.94;;;25.72;40.87
21240;BME280;10778;48.962;9.018;2023-07-20T11:41:25;98860.91;;;25.66;40.12
21240;BME280;10778;48.962;9.018;2023-07-20T11:43:52;98855.38;;;25.43;41.47
21240;BME280;10778;48.962;9.018;2023-07-20T11:46:18;98857.38;;;24.66;41.71
21240;BME280;10778;48.962;9.018;2023-07-20T11:48:44;98855.59;;;25.42;41.33
21240;BME280;10778;48.962;9.018;2023-07-20T11:51:16;98860.50;;;25.57;41.45
21240;BME280;10778;48.962;9.018;2023-07-20T11:53:44;98859.28;;;25.07;43.24
21240;BME280;10778;48.962;9.018;2023-07-20T11:56:12;98855.53;;;25.37;42.14
21240;BME280;10778;48.962;9.018;2023-07-20T11:58:44;98855.69;;;25.59;41.71
21240;BME280;10778;48.962;9.018;2023-07-20T12:01:14;98832.53;;;26.93;38.90
21240;BME280;10778;48.962;9.018;2023-07-20T12:03:43;98827.91;;;26.27;38.81
21240;BME280;10778;48.962;9.018;2023-07-20T12:06:10;98828.69;;;26.45;38.26
21240;BME280;10778;48.962;9.018;2023-07-20T12:08:42;98819.38;;;26.97;39.31
21240;BME280;10778;48.962;9.018;2023-07-20T12:11:08;98832.19;;;25.89;40.75
21240;BME280;10778;48.962;9.018;2023-07-20T12:13:38;98821.97;;;26.47;40.73
21240;BME280;10778;48.962;9.018;2023-07-20T12:16:14;98825.06;;;26.17;38.91
21240;BME280;10778;48.962;9.018;2023-07-20T12:18:42;98813.94;;;26.52;38.45
21240;BME280;10778;48.962;9.018;2023-07-20T12:21:10;98800.16;;;26.93;37.62
21240;BME280;10778;48.962;9.018;2023-07-20T12:23:40;98811.22;;;26.92;37.09
21240;BME280;10778;48.962;9.018;2023-07-20T12:26:07;98802.28;;;27.74;36.99
21240;BME280;10778;48.962;9.018;2023-07-20T12:28:41;98792.47;;;27.35;35.93
21240;BME280;10778;48.962;9.018;2023-07-20T12:31:08;98798.94;;;27.34;36.53
21240;BME280;10778;48.962;9.018;2023-07-20T12:33:35;98793.91;;;27.48;37.58
21240;BME280;10778;48.962;9.018;2023-07-20T12:36:02;98799.53;;;26.86;37.60
21240;BME280;10778;48.962;9.018;2023-07-20T12:38:28;98803.22;;;26.58;38.80
21240;BME280;10778;48.962;9.018;2023-07-20T12:40:54;98785.44;;;27.34;37.79
21240;BME280;10778;48.962;9.018;2023-07-20T12:43:24;98787.94;;;27.73;37.06
21240;BME280;10778;48.962;9.018;2023-07-20T12:45:50;98780.31;;;27.65;36.56
21240;BME280;10778;48.962;9.018;2023-07-20T12:48:16;98774.97;;;27.75;35.11
21240;BME280;10778;48.962;9.018;2023-07-20T12:50:42;98764.66;;;27.07;34.96
21240;BME280;10778;48.962;9.018;2023-07-20T12:53:08;98768.50;;;27.76;37.48
21240;BME280;10778;48.962;9.018;2023-07-20T12:55:34;98777.09;;;28.11;36.88
21240;BME280;10778;48.962;9.018;2023-07-20T12:58:00;98765.66;;;27.99;36.61
21240;BME280;10778;48.962;9.018;2023-07-20T13:00:26;98771.28;;;27.87;35.31
21240;BME280;10778;48.962;9.018;2023-07-20T13:02:52;98766.16;;;28.33;36.61
21240;BME280;10778;48.962;9.018;2023-07-20T13:05:18;98756.75;;;28.57;36.21
21240;BME280;10778;48.962;9.018;2023-07-20T13:07:44;98760.25;;;27.99;35.94
21240;BME280;10778;48.962;9.018;2023-07-20T13:10:11;98755.25;;;27.75;36.45
21240;BME280;10778;48.962;9.018;2023-07-20T13:12:38;98753.81;;;27.34;35.31
21240;BME280;10778;48.962;9.018;2023-07-20T13:15:05;98751.78;;;27.14;35.65
21240;BME280;10778;48.962;9.018;2023-07-20T13:17:36;98771.97;;;26.39;36.21
21240;BME280;10778;48.962;9.018;2023-07-20T13:20:03;98763.56;;;26.36;36.76
21240;BME280;10778;48.962;9.018;2023-07-20T13:22:33;98759.84;;;26.87;36.82